createdAt,value
2022-12-11T00:02:57.534Z,97612.91
2022-12-11T00:05:48.954Z,97611.09
2022-12-11T00:08:38.556Z,97614.66
2022-12-11T00:11:36.524Z,97623.22
2022-12-11T00:14:27.167Z,97618.81
2022-12-11T00:17:19.263Z,97623.03
2022-12-11T00:20:11.051Z,97631.66
2022-12-11T00:23:02.554Z,97641.19
2022-12-11T00:25:50.814Z,97630.75
2022-12-11T00:28:59.137Z,97629.06
2022-12-11T00:31:47.058Z,97633.34
2022-12-11T00:34:36.301Z,97632.41
2022-12-11T00:37:24.102Z,97632.41
2022-12-11T00:40:13.232Z,97638.38
2022-12-11T00:43:01.379Z,97632.31
2022-12-11T00:45:50.441Z,97638.28
2022-12-11T00:48:38.926Z,97643.50
2022-12-11T00:51:28.241Z,97647.75
2022-12-11T00:54:16.233Z,97639.72
2022-12-11T00:57:04.339Z,97641.28
2022-12-11T00:59:52.419Z,97647.25
2022-12-11T01:02:40.574Z,97643.91
2022-12-11T01:05:28.399Z,97656.94
2022-12-11T01:08:18.646Z,97650.78
2022-12-11T01:11:08.892Z,97656.00
2022-12-11T01:13:56.825Z,97656.00
2022-12-11T01:16:44.849Z,97662.91
2022-12-11T01:19:35.514Z,97662.91
2022-12-11T01:22:23.515Z,97662.91
2022-12-11T01:25:12.968Z,97662.91
2022-12-11T01:28:01.028Z,97663.72
2022-12-11T01:30:48.682Z,97664.56
2022-12-11T01:33:36.986Z,97657.47
2022-12-11T01:36:25.488Z,97662.69
2022-12-11T01:39:13.396Z,97655.69
2022-12-11T01:42:03.515Z,97659.16
2022-12-11T01:45:27.759Z,97659.16
2022-12-11T01:48:20.849Z,97653.94
2022-12-11T01:51:08.680Z,97659.16
2022-12-11T01:54:00.765Z,97657.28
2022-12-11T01:56:51.307Z,97659.88
2022-12-11T01:59:44.392Z,97655.59
2022-12-11T02:02:32.600Z,97650.38
2022-12-11T02:05:21.781Z,97654.56
2022-12-11T02:08:10.130Z,97662.50
2022-12-11T02:11:07.496Z,97660.59
2022-12-11T02:14:05.154Z,97656.97
2022-12-11T02:17:00.990Z,97663.97
2022-12-11T02:20:02.077Z,97665.63
2022-12-11T02:23:09.946Z,97662.19
2022-12-11T02:26:13.240Z,97664.72
2022-12-11T02:29:04.697Z,97667.31
2022-12-11T02:31:59.528Z,97659.50
2022-12-11T02:35:03.504Z,97661.06
2022-12-11T02:38:01.965Z,97663.66
2022-12-11T02:40:54.482Z,97659.28
2022-12-11T02:43:48.277Z,97657.50
2022-12-11T02:46:48.724Z,97653.13
2022-12-11T02:49:39.325Z,97655.72
2022-12-11T02:52:40.331Z,97663.34
2022-12-11T02:55:36.719Z,97655.53
2022-12-11T02:58:27.847Z,97655.53
2022-12-11T03:01:20.225Z,97661.66
2022-12-11T03:04:18.582Z,97657.19
2022-12-11T03:07:12.259Z,97656.25
2022-12-11T03:10:15.641Z,97651.88
2022-12-11T03:13:10.401Z,97656.25
2022-12-11T03:16:36.365Z,97654.59
2022-12-11T03:19:57.082Z,97661.47
2022-12-11T03:22:54.951Z,97658.97
2022-12-11T03:26:00.538Z,97663.34
2022-12-11T03:29:06.605Z,97659.81
2022-12-11T03:32:14.051Z,97664.06
2022-12-11T03:35:15.054Z,97658.13
2022-12-11T03:38:07.647Z,97654.59
2022-12-11T03:41:00.400Z,97657.28
2022-12-11T03:43:50.316Z,97656.25
2022-12-11T03:46:41.380Z,97659.81
2022-12-11T03:49:35.517Z,97645.00
2022-12-11T03:52:27.418Z,97651.22
2022-12-11T03:55:17.905Z,97651.22
2022-12-11T03:58:09.563Z,97652.06
2022-12-11T04:00:57.403Z,97650.31
2022-12-11T04:03:45.708Z,97658.13
2022-12-11T04:06:33.508Z,97658.13
2022-12-11T04:09:22.813Z,97659.81
2022-12-11T04:12:10.939Z,97657.28
2022-12-11T04:15:04.794Z,97655.53
2022-12-11T04:18:10.318Z,97650.41
2022-12-11T04:21:15.850Z,97654.78
2022-12-11T04:24:19.055Z,97653.94
2022-12-11T04:27:08.257Z,97653.13
2022-12-11T04:29:55.979Z,97648.84
2022-12-11T04:32:44.278Z,97652.47
2022-12-11T04:35:32.269Z,97646.44
2022-12-11T04:38:19.979Z,97652.47
2022-12-11T04:41:09.676Z,97648.22
2022-12-11T04:43:59.043Z,97643.94
2022-12-11T04:46:47.044Z,97643.94
2022-12-11T04:49:34.953Z,97646.66
2022-12-11T04:52:23.030Z,97635.47
2022-12-11T04:55:12.358Z,97637.34
2022-12-11T04:58:00.273Z,97634.94
2022-12-11T05:00:49.714Z,97632.53
2022-12-11T05:03:37.755Z,97635.97
2022-12-11T05:06:25.470Z,97636.19
2022-12-11T05:09:15.220Z,97631.16
2022-12-11T05:12:03.438Z,97631.38
2022-12-11T05:14:55.175Z,97630.75
2022-12-11T05:17:45.912Z,97636.34
2022-12-11T05:20:33.793Z,97636.56
2022-12-11T05:23:21.601Z,97640.31
2022-12-11T05:26:16.093Z,97636.31
2022-12-11T05:29:04.044Z,97630.47
2022-12-11T05:31:55.659Z,97632.53
2022-12-11T05:34:46.717Z,97636.19
2022-12-11T05:37:37.640Z,97632.91
2022-12-11T05:40:30.704Z,97629.78
2022-12-11T05:43:21.893Z,97623.13
2022-12-11T05:46:17.731Z,97626.00
2022-12-11T05:49:06.051Z,97621.09
2022-12-11T05:52:04.308Z,97622.19
2022-12-11T05:55:15.330Z,97618.97
2022-12-11T05:58:03.849Z,97612.38
2022-12-11T06:00:51.740Z,97626.50
2022-12-11T06:03:40.034Z,97622.44
2022-12-11T06:06:31.931Z,97628.78
2022-12-11T06:09:23.711Z,97623.88
2022-12-11T06:12:11.975Z,97627.50
2022-12-11T06:15:00.020Z,97622.47
2022-12-11T06:17:47.980Z,97621.81
2022-12-11T06:20:36.802Z,97622.13
2022-12-11T06:23:24.588Z,97628.44
2022-12-11T06:26:15.151Z,97635.50
2022-12-11T06:29:06.331Z,97632.28
2022-12-11T06:31:57.185Z,97627.34
2022-12-11T06:34:48.674Z,97624.19
2022-12-11T06:37:37.098Z,97624.38
2022-12-11T06:40:25.212Z,97624.72
2022-12-11T06:43:16.561Z,97622.31
2022-12-11T06:46:06.338Z,97631.34
2022-12-11T06:48:54.414Z,97635.25
2022-12-11T06:51:42.587Z,97629.38
2022-12-11T06:54:30.415Z,97627.72
2022-12-11T06:57:19.342Z,97628.84
2022-12-11T07:00:10.032Z,97629.56
2022-12-11T07:02:57.798Z,97629.75
2022-12-11T07:05:46.097Z,97632.25
2022-12-11T07:08:34.223Z,97631.63
2022-12-11T07:11:22.949Z,97638.66
2022-12-11T07:14:11.171Z,97636.25
2022-12-11T07:17:00.728Z,97631.63
2022-12-11T07:19:48.616Z,97634.31
2022-12-11T07:22:41.629Z,97638.75
2022-12-11T07:25:32.831Z,97637.94
2022-12-11T07:28:25.100Z,97640.53
2022-12-11T07:31:29.632Z,97632.72
2022-12-11T07:34:19.382Z,97638.56
2022-12-11T07:37:07.378Z,97639.50
2022-12-11T07:39:55.395Z,97640.53
2022-12-11T07:42:46.252Z,97642.19
2022-12-11T07:45:34.686Z,97634.22
2022-12-11T07:48:23.246Z,97647.22
2022-12-11T07:51:14.984Z,97654.75
2022-12-11T07:54:06.141Z,97645.91
2022-12-11T07:56:54.169Z,97640.72
2022-12-11T07:59:42.450Z,97640.53
2022-12-11T08:02:34.032Z,97642.97
2022-12-11T08:05:24.946Z,97646.31
2022-12-11T08:08:14.645Z,97653.00
2022-12-11T08:11:03.312Z,97644.25
2022-12-11T08:13:50.982Z,97645.72
2022-12-11T08:16:43.113Z,97642.94
2022-12-11T08:19:31.336Z,97651.31
2022-12-11T08:22:19.167Z,97650.19
2022-12-11T08:25:09.806Z,97646.47
2022-12-11T08:27:58.016Z,97647.03
2022-12-11T08:30:45.995Z,97647.59
2022-12-11T08:33:34.043Z,97653.34
2022-12-11T08:36:24.304Z,97646.09
2022-12-11T08:39:12.462Z,97651.75
2022-12-11T08:42:02.369Z,97656.66
2022-12-11T08:44:50.276Z,97651.09
2022-12-11T08:47:38.585Z,97654.25
2022-12-11T08:50:26.872Z,97653.03
2022-12-11T08:53:14.583Z,97653.56
2022-12-11T08:56:03.114Z,97658.28
2022-12-11T08:59:00.141Z,97660.59
2022-12-11T09:01:48.329Z,97647.09
2022-12-11T09:04:43.303Z,97658.06
2022-12-11T09:07:31.107Z,97656.19
2022-12-11T09:10:22.135Z,97655.06
2022-12-11T09:13:10.019Z,97659.13
2022-12-11T09:16:05.330Z,97659.66
2022-12-11T09:18:55.988Z,97655.94
2022-12-11T09:21:45.601Z,97659.28
2022-12-11T09:24:41.655Z,97651.16
2022-12-11T09:27:47.652Z,97651.81
2022-12-11T09:30:40.695Z,97648.81
2022-12-11T09:33:44.335Z,97657.13
2022-12-11T09:36:43.737Z,97648.16
2022-12-11T09:39:33.242Z,97660.09
2022-12-11T09:42:37.977Z,97652.16
2022-12-11T09:45:33.968Z,97652.59
2022-12-11T09:48:33.688Z,97661.91
2022-12-11T09:51:41.625Z,97647.72
2022-12-11T09:54:29.990Z,97642.28
2022-12-11T09:57:53.530Z,97641.13
2022-12-11T10:00:50.185Z,97643.75
2022-12-11T10:04:17.123Z,97638.13
2022-12-11T10:07:14.254Z,97630.91
2022-12-11T10:10:13.652Z,97626.22
2022-12-11T10:13:07.355Z,97627.69
2022-12-11T10:16:01.591Z,97620.50
2022-12-11T10:18:51.316Z,97616.22
2022-12-11T10:21:42.658Z,97614.22
2022-12-11T10:25:09.605Z,97610.56
2022-12-11T10:27:45.191Z,97608.69
2022-12-11T10:30:40.601Z,97615.34
2022-12-11T10:33:35.719Z,97608.25
2022-12-11T10:36:30.213Z,97604.69
2022-12-11T10:39:20.033Z,97612.31
2022-12-11T10:42:20.151Z,97604.50
2022-12-11T10:45:09.548Z,97606.28
2022-12-11T10:48:10.657Z,97605.22
2022-12-11T10:51:01.996Z,97606.78
2022-12-11T10:53:52.577Z,97594.59
2022-12-11T10:56:40.591Z,97600.50
2022-12-11T10:59:38.207Z,97598.84
2022-12-11T11:02:29.527Z,97593.63
2022-12-11T11:05:28.034Z,97585.78
2022-12-11T11:08:19.286Z,97584.13
2022-12-11T11:11:08.998Z,97578.06
2022-12-11T11:14:14.514Z,97577.97
2022-12-11T11:17:04.699Z,97574.63
2022-12-11T11:19:52.651Z,97570.88
2022-12-11T11:22:45.698Z,97570.25
2022-12-11T11:25:34.575Z,97571.78
2022-12-11T11:28:25.530Z,97562.09
2022-12-11T11:31:15.735Z,97556.75
2022-12-11T11:34:10.477Z,97560.09
2022-12-11T11:37:01.070Z,97555.81
2022-12-11T11:39:52.317Z,97555.59
2022-12-11T11:42:48.710Z,97554.78
2022-12-11T11:45:45.029Z,97553.81
2022-12-11T11:48:39.720Z,97543.59
2022-12-11T11:51:38.705Z,97549.56
2022-12-11T11:54:33.053Z,97542.06
2022-12-11T11:57:30.372Z,97537.63
2022-12-11T12:00:21.916Z,97527.81
2022-12-11T12:03:13.747Z,97525.31
2022-12-11T12:06:14.946Z,97528.03
2022-12-11T12:09:19.141Z,97523.66
2022-12-11T12:12:24.759Z,97516.53
2022-12-11T12:15:27.261Z,97518.94
2022-12-11T12:18:23.686Z,97516.31
2022-12-11T12:21:19.381Z,97513.81
2022-12-11T12:24:22.743Z,97507.78
2022-12-11T12:27:51.156Z,97511.94
2022-12-11T12:30:39.481Z,97506.94
2022-12-11T12:33:41.642Z,97499.00
2022-12-11T12:36:36.607Z,97506.72
2022-12-11T12:39:36.513Z,97512.78
2022-12-11T12:42:33.309Z,97518.00
2022-12-11T12:45:28.558Z,97513.50
2022-12-11T12:48:17.139Z,97512.44
2022-12-11T12:51:06.440Z,97503.91
2022-12-11T12:53:58.218Z,97509.22
2022-12-11T12:56:49.365Z,97502.03
2022-12-11T12:59:37.389Z,97494.94
2022-12-11T13:02:25.925Z,97496.28
2022-12-11T13:05:22.999Z,97490.22
2022-12-11T13:08:12.059Z,97492.72
2022-12-11T13:11:06.101Z,97500.88
2022-12-11T13:14:07.502Z,97500.97
2022-12-11T13:17:08.509Z,97498.16
2022-12-11T13:20:17.926Z,97494.50
2022-12-11T13:23:19.725Z,97494.50
2022-12-11T13:26:07.480Z,97498.16
2022-12-11T13:28:55.688Z,97488.03
2022-12-11T13:31:46.678Z,97488.88
2022-12-11T13:34:37.581Z,97483.78
2022-12-11T13:37:31.904Z,97480.41
2022-12-11T13:40:23.498Z,97490.16
2022-12-11T13:43:19.348Z,97493.69
2022-12-11T13:46:10.841Z,97489.22
2022-12-11T13:49:02.542Z,97488.25
2022-12-11T13:51:55.231Z,97487.34
2022-12-11T13:54:50.268Z,97486.81
2022-12-11T13:57:47.086Z,97481.28
2022-12-11T14:00:35.316Z,97490.06
2022-12-11T14:03:24.259Z,97499.44
2022-12-11T14:06:18.769Z,97505.72
2022-12-11T14:09:08.500Z,97506.31
2022-12-11T14:11:59.160Z,97503.47
2022-12-11T14:14:52.145Z,97510.28
2022-12-11T14:17:47.092Z,97502.25
2022-12-11T14:20:38.417Z,97506.63
2022-12-11T14:23:29.925Z,97507.09
2022-12-11T14:26:21.023Z,97499.06
2022-12-11T14:29:08.894Z,97507.22
2022-12-11T14:31:57.904Z,97506.19
2022-12-11T14:34:48.910Z,97502.63
2022-12-11T14:37:38.286Z,97507.72
2022-12-11T14:40:33.956Z,97512.94
2022-12-11T14:43:27.699Z,97520.69
2022-12-11T14:46:21.471Z,97516.53
2022-12-11T14:49:17.497Z,97521.13
2022-12-11T14:52:06.294Z,97521.53
2022-12-11T14:55:00.983Z,97525.00
2022-12-11T14:57:55.184Z,97526.88
2022-12-11T15:00:43.619Z,97531.50
2022-12-11T15:03:34.826Z,97524.81
2022-12-11T15:06:29.398Z,97539.75
2022-12-11T15:09:22.313Z,97542.69
2022-12-11T15:12:12.945Z,97547.28
2022-12-11T15:15:05.578Z,97540.63
2022-12-11T15:17:54.028Z,97543.75
2022-12-11T15:20:42.354Z,97539.97
2022-12-11T15:23:31.229Z,97548.59
2022-12-11T15:26:20.267Z,97553.78
2022-12-11T15:29:24.922Z,97556.50
2022-12-11T15:32:22.126Z,97556.50
2022-12-11T15:35:26.224Z,97551.19
2022-12-11T15:38:35.758Z,97554.22
2022-12-11T15:41:24.806Z,97548.56
2022-12-11T15:44:20.383Z,97542.84
2022-12-11T15:47:14.583Z,97551.59
2022-12-11T15:50:12.700Z,97562.13
2022-12-11T15:53:00.580Z,97565.91
2022-12-11T15:55:48.803Z,97559.94
2022-12-11T15:58:37.435Z,97559.94
2022-12-11T16:01:26.534Z,97564.84
2022-12-11T16:04:14.248Z,97561.50
2022-12-11T16:07:03.758Z,97561.72
2022-12-11T16:09:51.908Z,97567.88
2022-12-11T16:12:39.824Z,97567.97
2022-12-11T16:15:28.572Z,97575.41
2022-12-11T16:18:18.992Z,97567.78
2022-12-11T16:21:07.814Z,97559.22
2022-12-11T16:23:57.173Z,97573.19
2022-12-11T16:26:44.902Z,97572.44
2022-12-11T16:29:36.110Z,97576.00
2022-12-11T16:32:23.942Z,97578.81
2022-12-11T16:35:11.983Z,97570.44
2022-12-11T16:38:03.233Z,97567.13
2022-12-11T16:41:17.828Z,97573.25
2022-12-11T16:44:06.670Z,97567.13
2022-12-11T16:46:55.793Z,97567.34
2022-12-11T16:49:44.140Z,97567.34
2022-12-11T16:52:33.357Z,97569.38
2022-12-11T16:55:22.294Z,97564.47
2022-12-11T16:58:16.326Z,97559.16
2022-12-11T17:01:12.279Z,97564.47
2022-12-11T17:04:00.586Z,97565.31
2022-12-11T17:06:48.985Z,97558.56
2022-12-11T17:09:37.362Z,97560.31
2022-12-11T17:12:27.771Z,97565.63
2022-12-11T17:15:17.039Z,97560.50
2022-12-11T17:18:05.450Z,97565.94
2022-12-11T17:20:55.859Z,97571.03
2022-12-11T17:23:45.106Z,97570.19
2022-12-11T17:26:33.112Z,97574.59
2022-12-11T17:29:21.285Z,97569.47
2022-12-11T17:32:10.510Z,97568.53
2022-12-11T17:34:58.509Z,97576.44
2022-12-11T17:37:47.159Z,97570.38
2022-12-11T17:40:34.905Z,97573.94
2022-12-11T17:43:23.360Z,97577.50
2022-12-11T17:46:25.278Z,97581.75
2022-12-11T17:49:25.600Z,97582.69
2022-12-11T17:52:14.112Z,97579.34
2022-12-11T17:55:03.148Z,97585.41
2022-12-11T17:57:51.282Z,97591.44
2022-12-11T18:00:40.160Z,97585.59
2022-12-11T18:03:29.315Z,97599.34
2022-12-11T18:06:19.177Z,97594.97
2022-12-11T18:09:07.603Z,97594.13
2022-12-11T18:11:55.475Z,97596.75
2022-12-11T18:14:43.659Z,97591.63
2022-12-11T18:17:33.237Z,97589.97
2022-12-11T18:20:21.252Z,97580.38
2022-12-11T18:23:10.572Z,97588.09
2022-12-11T18:25:58.427Z,97594.03
2022-12-11T18:28:47.576Z,97601.94
2022-12-11T18:31:41.953Z,97603.75
2022-12-11T18:34:30.332Z,97595.91
2022-12-11T18:37:21.142Z,97594.97
2022-12-11T18:40:13.807Z,97591.53
2022-12-11T18:43:01.556Z,97595.91
2022-12-11T18:45:51.942Z,97583.72
2022-12-11T18:48:40.505Z,97588.09
2022-12-11T18:51:28.221Z,97590.72
2022-12-11T18:54:15.910Z,97584.56
2022-12-11T18:57:05.382Z,97589.97
2022-12-11T18:59:54.157Z,97595.91
2022-12-11T19:02:42.246Z,97589.75
2022-12-11T19:05:31.373Z,97588.09
2022-12-11T19:08:19.589Z,97581.00
2022-12-11T19:11:07.888Z,97582.69
2022-12-11T19:13:57.739Z,97581.75
2022-12-11T19:16:46.498Z,97585.31
2022-12-11T19:19:34.813Z,97584.34
2022-12-11T19:22:22.632Z,97585.31
2022-12-11T19:25:10.944Z,97588.00
2022-12-11T19:27:58.901Z,97582.69
2022-12-11T19:30:49.969Z,97586.03
2022-12-11T19:33:38.583Z,97586.22
2022-12-11T19:36:28.578Z,97587.06
2022-12-11T19:39:16.689Z,97587.06
2022-12-11T19:42:05.021Z,97582.69
2022-12-11T19:44:55.726Z,97586.03
2022-12-11T19:47:44.963Z,97574.78
2022-12-11T19:50:36.305Z,97577.38
2022-12-11T19:53:24.334Z,97580.00
2022-12-11T19:56:12.763Z,97580.00
2022-12-11T19:59:02.894Z,97588.72
2022-12-11T20:01:50.739Z,97587.91
2022-12-11T20:04:41.398Z,97591.44
2022-12-11T20:07:30.737Z,97586.22
2022-12-11T20:10:18.960Z,97593.13
2022-12-11T20:13:07.363Z,97588.72
2022-12-11T20:15:55.316Z,97590.50
2022-12-11T20:18:44.435Z,97584.34
2022-12-11T20:21:34.048Z,97595.72
2022-12-11T20:24:22.035Z,97594.78
2022-12-11T20:27:13.479Z,97596.63
2022-12-11T20:30:01.293Z,97594.97
2022-12-11T20:32:49.545Z,97593.13
2022-12-11T20:35:37.436Z,97595.63
2022-12-11T20:38:31.238Z,97589.56
2022-12-11T20:41:23.997Z,97584.34
2022-12-11T20:44:12.226Z,97583.41
2022-12-11T20:47:00.052Z,97586.97
2022-12-11T20:49:48.243Z,97587.81
2022-12-11T20:52:36.927Z,97585.09
2022-12-11T20:55:26.308Z,97587.72
2022-12-11T20:58:14.544Z,97582.50
2022-12-11T21:01:02.987Z,97586.03
2022-12-11T21:03:52.672Z,97593.13
2022-12-11T21:06:42.010Z,97596.44
2022-12-11T21:09:30.303Z,97595.63
2022-12-11T21:12:19.670Z,97586.22
2022-12-11T21:15:08.431Z,97577.50
2022-12-11T21:17:56.403Z,97587.06
2022-12-11T21:20:44.610Z,97588.91
2022-12-11T21:23:32.642Z,97591.44
2022-12-11T21:26:20.622Z,97588.00
2022-12-11T21:29:09.839Z,97588.91
2022-12-11T21:31:58.166Z,97588.91
2022-12-11T21:34:45.944Z,97588.09
2022-12-11T21:37:33.926Z,97586.41
2022-12-11T21:40:22.399Z,97583.00
2022-12-11T21:43:10.471Z,97588.22
2022-12-11T21:46:01.380Z,97584.75
2022-12-11T21:48:53.702Z,97584.75
2022-12-11T21:51:47.025Z,97577.13
2022-12-11T21:54:35.788Z,97581.44
2022-12-11T21:57:26.583Z,97573.72
2022-12-11T22:00:16.234Z,97583.28
2022-12-11T22:03:05.696Z,97574.53
2022-12-11T22:05:53.711Z,97578.06
2022-12-11T22:08:41.769Z,97579.75
2022-12-11T22:11:33.133Z,97579.03
2022-12-11T22:14:21.147Z,97578.19
2022-12-11T22:17:10.194Z,97583.50
2022-12-11T22:19:59.582Z,97583.59
2022-12-11T22:22:47.814Z,97584.53
2022-12-11T22:25:36.329Z,97598.47
2022-12-11T22:28:24.472Z,97594.09
2022-12-11T22:31:12.827Z,97595.97
2022-12-11T22:34:00.938Z,97593.34
2022-12-11T22:36:50.338Z,97594.19
2022-12-11T22:39:38.064Z,97589.09
2022-12-11T22:42:26.153Z,97598.56
2022-12-11T22:45:14.482Z,97596.91
2022-12-11T22:48:02.675Z,97598.66
2022-12-11T22:50:50.582Z,97605.66
2022-12-11T22:53:40.198Z,97604.72
2022-12-11T22:56:28.130Z,97600.53
2022-12-11T22:59:16.021Z,97603.88
2022-12-11T23:02:03.933Z,97604.72
2022-12-11T23:04:51.918Z,97604.72
2022-12-11T23:07:40.241Z,97600.44
2022-12-11T23:10:29.310Z,97600.44
2022-12-11T23:13:17.183Z,97609.94
2022-12-11T23:16:05.383Z,97604.72
2022-12-11T23:18:53.307Z,97608.25
2022-12-11T23:21:41.236Z,97603.06
2022-12-11T23:24:29.187Z,97603.06
2022-12-11T23:27:18.806Z,97604.72
2022-12-11T23:30:07.975Z,97609.06
2022-12-11T23:32:55.767Z,97610.97
2022-12-11T23:35:43.650Z,97614.47
2022-12-11T23:38:32.407Z,97610.13
2022-12-11T23:41:21.392Z,97611.97
2022-12-11T23:44:11.505Z,97610.13
2022-12-11T23:46:59.173Z,97618.88
2022-12-11T23:49:47.190Z,97617.00
2022-12-11T23:52:35.296Z,97617.84
2022-12-11T23:55:25.425Z,97615.34
2022-12-11T23:58:13.585Z,97611.78
